sensor_id;sensor_type;location;lat;lon;timestamp;P1;durP1;ratioP1;P2;durP2;ratioP2
14326;SDS011;7247;53.330;-1.180;2024-03-02T00:01:14;10.90;;;5.90;;
14326;SDS011;7247;53.330;-1.180;2024-03-02T00:03:41;10.43;;;6.20;;
14326;SDS011;7247;53.330;-1.180;2024-03-02T00:06:08;8.13;;;6.03;;
14326;SDS011;7247;53.330;-1.180;2024-03-02T00:08:35;9.13;;;5.60;;
14326;SDS011;7247;53.330;-1.180;2024-03-02T00:11:02;12.27;;;6.37;;
14326;SDS011;7247;53.330;-1.180;2024-03-02T00:13:29;10.40;;;6.27;;
14326;SDS011;7247;53.330;-1.180;2024-03-02T00:15:58;11.77;;;6.23;;
14326;SDS011;7247;53.330;-1.180;2024-03-02T00:18:25;11.17;;;5.77;;
14326;SDS011;7247;53.330;-1.180;2024-03-02T00:20:52;9.20;;;6.37;;
14326;SDS011;7247;53.330;-1.180;2024-03-02T00:23:19;11.80;;;5.70;;
14326;SDS011;7247;53.330;-1.180;2024-03-02T00:25:47;9.23;;;5.53;;
14326;SDS011;7247;53.330;-1.180;2024-03-02T00:28:15;11.33;;;6.40;;
14326;SDS011;7247;53.330;-1.180;2024-03-02T00:33:31;10.60;;;5.70;;
14326;SDS011;7247;53.330;-1.180;2024-03-02T00:35:58;8.97;;;5.67;;
14326;SDS011;7247;53.330;-1.180;2024-03-02T00:38:26;13.40;;;5.87;;
14326;SDS011;7247;53.330;-1.180;2024-03-02T00:40:52;9.90;;;5.40;;
14326;SDS011;7247;53.330;-1.180;2024-03-02T00:46:06;6.70;;;5.10;;
14326;SDS011;7247;53.330;-1.180;2024-03-02T00:48:34;7.87;;;5.50;;
14326;SDS011;7247;53.330;-1.180;2024-03-02T00:51:02;8.50;;;5.30;;
14326;SDS011;7247;53.330;-1.180;2024-03-02T00:53:29;10.70;;;5.40;;
14326;SDS011;7247;53.330;-1.180;2024-03-02T00:55:56;10.33;;;5.83;;
14326;SDS011;7247;53.330;-1.180;2024-03-02T00:58:22;9.47;;;5.30;;
14326;SDS011;7247;53.330;-1.180;2024-03-02T01:00:49;8.40;;;5.40;;
14326;SDS011;7247;53.330;-1.180;2024-03-02T01:03:16;8.00;;;5.27;;
14326;SDS011;7247;53.330;-1.180;2024-03-02T01:05:45;8.57;;;5.53;;
14326;SDS011;7247;53.330;-1.180;2024-03-02T01:08:11;9.47;;;5.40;;
14326;SDS011;7247;53.330;-1.180;2024-03-02T01:10:38;13.07;;;5.30;;
14326;SDS011;7247;53.330;-1.180;2024-03-02T01:13:04;11.60;;;5.67;;
14326;SDS011;7247;53.330;-1.180;2024-03-02T01:15:31;10.70;;;5.43;;
14326;SDS011;7247;53.330;-1.180;2024-03-02T01:17:58;10.43;;;5.40;;
14326;SDS011;7247;53.330;-1.180;2024-03-02T01:20:24;11.97;;;5.87;;
14326;SDS011;7247;53.330;-1.180;2024-03-02T01:22:52;7.93;;;5.60;;
14326;SDS011;7247;53.330;-1.180;2024-03-02T01:25:19;7.00;;;5.10;;
14326;SDS011;7247;53.330;-1.180;2024-03-02T01:27:45;10.67;;;5.70;;
14326;SDS011;7247;53.330;-1.180;2024-03-02T01:30:12;8.53;;;5.63;;
14326;SDS011;7247;53.330;-1.180;2024-03-02T01:32:38;8.57;;;5.70;;
14326;SDS011;7247;53.330;-1.180;2024-03-02T01:35:05;8.43;;;5.00;;
14326;SDS011;7247;53.330;-1.180;2024-03-02T01:37:32;9.97;;;4.90;;
14326;SDS011;7247;53.330;-1.180;2024-03-02T01:40:00;7.73;;;4.80;;
14326;SDS011;7247;53.330;-1.180;2024-03-02T01:42:26;10.77;;;5.30;;
14326;SDS011;7247;53.330;-1.180;2024-03-02T01:44:52;9.20;;;5.27;;
14326;SDS011;7247;53.330;-1.180;2024-03-02T01:47:19;9.53;;;5.47;;
14326;SDS011;7247;53.330;-1.180;2024-03-02T01:49:45;10.57;;;4.97;;
14326;SDS011;7247;53.330;-1.180;2024-03-02T01:52:12;10.13;;;4.90;;
14326;SDS011;7247;53.330;-1.180;2024-03-02T01:54:38;9.13;;;5.40;;
14326;SDS011;7247;53.330;-1.180;2024-03-02T01:57:06;10.87;;;5.03;;
14326;SDS011;7247;53.330;-1.180;2024-03-02T01:59:33;8.97;;;5.20;;
14326;SDS011;7247;53.330;-1.180;2024-03-02T02:01:59;9.80;;;5.37;;
14326;SDS011;7247;53.330;-1.180;2024-03-02T02:04:26;9.17;;;5.50;;
14326;SDS011;7247;53.330;-1.180;2024-03-02T02:06:53;8.63;;;5.13;;
14326;SDS011;7247;53.330;-1.180;2024-03-02T02:09:19;8.43;;;5.90;;
14326;SDS011;7247;53.330;-1.180;2024-03-02T02:11:46;12.57;;;5.67;;
14326;SDS011;7247;53.330;-1.180;2024-03-02T02:14:14;10.27;;;5.70;;
14326;SDS011;7247;53.330;-1.180;2024-03-02T02:16:40;8.63;;;5.40;;
14326;SDS011;7247;53.330;-1.180;2024-03-02T02:19:07;8.47;;;6.00;;
14326;SDS011;7247;53.330;-1.180;2024-03-02T02:21:35;9.33;;;5.73;;
14326;SDS011;7247;53.330;-1.180;2024-03-02T02:24:02;12.10;;;6.07;;
14326;SDS011;7247;53.330;-1.180;2024-03-02T02:26:29;10.07;;;6.43;;
14326;SDS011;7247;53.330;-1.180;2024-03-02T02:28:55;13.13;;;6.63;;
14326;SDS011;7247;53.330;-1.180;2024-03-02T02:31:22;13.77;;;6.30;;
14326;SDS011;7247;53.330;-1.180;2024-03-02T02:33:48;11.23;;;6.10;;
14326;SDS011;7247;53.330;-1.180;2024-03-02T02:36:15;13.60;;;6.83;;
14326;SDS011;7247;53.330;-1.180;2024-03-02T02:38:44;9.73;;;6.53;;
14326;SDS011;7247;53.330;-1.180;2024-03-02T02:41:11;11.30;;;6.43;;
14326;SDS011;7247;53.330;-1.180;2024-03-02T02:43:38;11.00;;;6.40;;
14326;SDS011;7247;53.330;-1.180;2024-03-02T02:46:04;17.23;;;6.80;;
14326;SDS011;7247;53.330;-1.180;2024-03-02T02:48:31;11.80;;;6.67;;
14326;SDS011;7247;53.330;-1.180;2024-03-02T02:50:57;12.47;;;6.27;;
14326;SDS011;7247;53.330;-1.180;2024-03-02T02:53:24;14.30;;;6.20;;
14326;SDS011;7247;53.330;-1.180;2024-03-02T02:55:52;9.73;;;6.73;;
14326;SDS011;7247;53.330;-1.180;2024-03-02T02:58:18;13.03;;;7.37;;
14326;SDS011;7247;53.330;-1.180;2024-03-02T03:00:44;11.73;;;6.70;;
14326;SDS011;7247;53.330;-1.180;2024-03-02T03:03:11;12.03;;;7.00;;
14326;SDS011;7247;53.330;-1.180;2024-03-02T03:05:37;15.77;;;7.40;;
14326;SDS011;7247;53.330;-1.180;2024-03-02T03:08:04;12.50;;;7.33;;
14326;SDS011;7247;53.330;-1.180;2024-03-02T03:10:30;13.17;;;7.70;;
14326;SDS011;7247;53.330;-1.180;2024-03-02T03:12:59;13.97;;;7.67;;
14326;SDS011;7247;53.330;-1.180;2024-03-02T03:15:26;15.37;;;8.03;;
14326;SDS011;7247;53.330;-1.180;2024-03-02T03:17:52;15.47;;;7.80;;
14326;SDS011;7247;53.330;-1.180;2024-03-02T03:20:19;9.60;;;7.53;;
14326;SDS011;7247;53.330;-1.180;2024-03-02T03:22:46;16.03;;;8.27;;
14326;SDS011;7247;53.330;-1.180;2024-03-02T03:25:13;14.97;;;7.87;;
14326;SDS011;7247;53.330;-1.180;2024-03-02T03:27:39;14.00;;;7.73;;
14326;SDS011;7247;53.330;-1.180;2024-03-02T03:30:08;13.83;;;8.17;;
14326;SDS011;7247;53.330;-1.180;2024-03-02T03:32:35;12.17;;;8.07;;
14326;SDS011;7247;53.330;-1.180;2024-03-02T03:35:01;12.07;;;8.37;;
14326;SDS011;7247;53.330;-1.180;2024-03-02T03:37:28;13.07;;;7.83;;
14326;SDS011;7247;53.330;-1.180;2024-03-02T03:39:57;13.77;;;8.13;;
14326;SDS011;7247;53.330;-1.180;2024-03-02T03:42:24;13.07;;;8.60;;
14326;SDS011;7247;53.330;-1.180;2024-03-02T03:44:51;13.73;;;8.90;;
14326;SDS011;7247;53.330;-1.180;2024-03-02T03:47:19;14.57;;;8.27;;
14326;SDS011;7247;53.330;-1.180;2024-03-02T03:49:45;15.90;;;8.40;;
14326;SDS011;7247;53.330;-1.180;2024-03-02T03:52:12;12.77;;;8.20;;
14326;SDS011;7247;53.330;-1.180;2024-03-02T03:54:38;18.73;;;8.73;;
14326;SDS011;7247;53.330;-1.180;2024-03-02T03:57:05;14.77;;;8.93;;
14326;SDS011;7247;53.330;-1.180;2024-03-02T03:59:31;14.27;;;8.50;;
14326;SDS011;7247;53.330;-1.180;2024-03-02T04:01:58;11.50;;;8.33;;
14326;SDS011;7247;53.330;-1.180;2024-03-02T04:04:26;13.73;;;8.97;;
14326;SDS011;7247;53.330;-1.180;2024-03-02T04:06:52;11.90;;;8.70;;
14326;SDS011;7247;53.330;-1.180;2024-03-02T04:09:19;16.37;;;8.77;;
14326;SDS011;7247;53.330;-1.180;2024-03-02T04:11:45;17.83;;;8.63;;
14326;SDS011;7247;53.330;-1.180;2024-03-02T04:14:12;16.33;;;8.30;;
14326;SDS011;7247;53.330;-1.180;2024-03-02T04:16:38;15.63;;;8.60;;
14326;SDS011;7247;53.330;-1.180;2024-03-02T04:19:05;10.97;;;8.20;;
14326;SDS011;7247;53.330;-1.180;2024-03-02T04:21:33;15.17;;;8.23;;
14326;SDS011;7247;53.330;-1.180;2024-03-02T04:23:59;15.40;;;8.77;;
14326;SDS011;7247;53.330;-1.180;2024-03-02T04:26:26;15.43;;;8.70;;
14326;SDS011;7247;53.330;-1.180;2024-03-02T04:28:52;13.30;;;9.00;;
14326;SDS011;7247;53.330;-1.180;2024-03-02T04:31:19;13.23;;;8.67;;
14326;SDS011;7247;53.330;-1.180;2024-03-02T04:33:45;16.27;;;8.70;;
14326;SDS011;7247;53.330;-1.180;2024-03-02T04:36:12;15.23;;;8.13;;
14326;SDS011;7247;53.330;-1.180;2024-03-02T04:38:40;11.67;;;8.30;;
14326;SDS011;7247;53.330;-1.180;2024-03-02T04:41:06;17.07;;;8.97;;
14326;SDS011;7247;53.330;-1.180;2024-03-02T04:43:33;18.57;;;8.70;;
14326;SDS011;7247;53.330;-1.180;2024-03-02T04:46:00;14.73;;;8.80;;
14326;SDS011;7247;53.330;-1.180;2024-03-02T04:48:26;17.17;;;9.40;;
14326;SDS011;7247;53.330;-1.180;2024-03-02T04:50:53;17.80;;;9.47;;
14326;SDS011;7247;53.330;-1.180;2024-03-02T04:53:19;17.20;;;9.47;;
14326;SDS011;7247;53.330;-1.180;2024-03-02T04:55:47;14.73;;;9.73;;
14326;SDS011;7247;53.330;-1.180;2024-03-02T04:58:43;18.27;;;10.13;;
14326;SDS011;7247;53.330;-1.180;2024-03-02T05:01:09;18.00;;;10.70;;
14326;SDS011;7247;53.330;-1.180;2024-03-02T05:03:35;19.73;;;10.87;;
14326;SDS011;7247;53.330;-1.180;2024-03-02T05:06:02;19.87;;;10.27;;
14326;SDS011;7247;53.330;-1.180;2024-03-02T05:08:29;20.70;;;10.90;;
14326;SDS011;7247;53.330;-1.180;2024-03-02T05:10:56;17.53;;;11.03;;
14326;SDS011;7247;53.330;-1.180;2024-03-02T05:13:43;18.57;;;11.43;;
14326;SDS011;7247;53.330;-1.180;2024-03-02T05:16:10;23.40;;;11.87;;
14326;SDS011;7247;53.330;-1.180;2024-03-02T05:18:37;21.57;;;11.70;;
14326;SDS011;7247;53.330;-1.180;2024-03-02T05:21:03;26.77;;;15.03;;
14326;SDS011;7247;53.330;-1.180;2024-03-02T05:23:30;27.70;;;16.07;;
14326;SDS011;7247;53.330;-1.180;2024-03-02T05:25:58;26.47;;;16.37;;
14326;SDS011;7247;53.330;-1.180;2024-03-02T05:28:24;30.83;;;17.30;;
14326;SDS011;7247;53.330;-1.180;2024-03-02T05:30:51;29.17;;;17.40;;
14326;SDS011;7247;53.330;-1.180;2024-03-02T05:33:17;26.53;;;16.47;;
14326;SDS011;7247;53.330;-1.180;2024-03-02T05:35:44;33.80;;;17.50;;
14326;SDS011;7247;53.330;-1.180;2024-03-02T05:38:10;33.67;;;18.43;;
14326;SDS011;7247;53.330;-1.180;2024-03-02T05:40:37;39.30;;;18.83;;
14326;SDS011;7247;53.330;-1.180;2024-03-02T05:43:05;30.57;;;19.23;;
14326;SDS011;7247;53.330;-1.180;2024-03-02T05:45:31;29.77;;;17.13;;
14326;SDS011;7247;53.330;-1.180;2024-03-02T05:47:58;25.37;;;16.47;;
14326;SDS011;7247;53.330;-1.180;2024-03-02T05:50:24;24.93;;;16.37;;
14326;SDS011;7247;53.330;-1.180;2024-03-02T05:52:50;28.57;;;16.10;;
14326;SDS011;7247;53.330;-1.180;2024-03-02T05:55:17;25.60;;;15.43;;
14326;SDS011;7247;53.330;-1.180;2024-03-02T05:57:43;28.33;;;14.97;;
14326;SDS011;7247;53.330;-1.180;2024-03-02T06:00:25;26.20;;;14.27;;
14326;SDS011;7247;53.330;-1.180;2024-03-02T06:02:51;20.87;;;13.37;;
14326;SDS011;7247;53.330;-1.180;2024-03-02T06:05:18;20.43;;;12.47;;
14326;SDS011;7247;53.330;-1.180;2024-03-02T06:07:44;25.83;;;13.53;;
14326;SDS011;7247;53.330;-1.180;2024-03-02T06:10:11;24.70;;;14.00;;
14326;SDS011;7247;53.330;-1.180;2024-03-02T06:12:37;23.37;;;13.90;;
14326;SDS011;7247;53.330;-1.180;2024-03-02T06:15:04;19.80;;;13.93;;
14326;SDS011;7247;53.330;-1.180;2024-03-02T06:17:32;25.03;;;15.20;;
14326;SDS011;7247;53.330;-1.180;2024-03-02T06:19:58;25.60;;;14.67;;
14326;SDS011;7247;53.330;-1.180;2024-03-02T06:22:25;25.57;;;17.00;;
14326;SDS011;7247;53.330;-1.180;2024-03-02T06:24:51;30.83;;;17.83;;
14326;SDS011;7247;53.330;-1.180;2024-03-02T06:27:18;25.37;;;16.43;;
14326;SDS011;7247;53.330;-1.180;2024-03-02T06:29:44;30.17;;;16.93;;
14326;SDS011;7247;53.330;-1.180;2024-03-02T06:32:11;31.23;;;16.87;;
14326;SDS011;7247;53.330;-1.180;2024-03-02T06:34:39;25.53;;;16.13;;
14326;SDS011;7247;53.330;-1.180;2024-03-02T06:37:05;24.13;;;15.97;;
14326;SDS011;7247;53.330;-1.180;2024-03-02T06:39:32;25.53;;;15.53;;
14326;SDS011;7247;53.330;-1.180;2024-03-02T06:41:59;24.90;;;14.77;;
14326;SDS011;7247;53.330;-1.180;2024-03-02T06:44:25;21.77;;;14.03;;
14326;SDS011;7247;53.330;-1.180;2024-03-02T06:46:52;22.53;;;12.97;;
14326;SDS011;7247;53.330;-1.180;2024-03-02T06:49:18;20.33;;;13.27;;
14326;SDS011;7247;53.330;-1.180;2024-03-02T06:51:46;21.03;;;12.20;;
14326;SDS011;7247;53.330;-1.180;2024-03-02T06:54:13;21.00;;;12.43;;
14326;SDS011;7247;53.330;-1.180;2024-03-02T06:56:39;18.60;;;11.33;;
14326;SDS011;7247;53.330;-1.180;2024-03-02T06:59:05;20.43;;;10.40;;
14326;SDS011;7247;53.330;-1.180;2024-03-02T07:01:32;17.60;;;11.07;;
14326;SDS011;7247;53.330;-1.180;2024-03-02T07:03:59;18.30;;;11.00;;
14326;SDS011;7247;53.330;-1.180;2024-03-02T07:06:26;18.87;;;10.67;;
14326;SDS011;7247;53.330;-1.180;2024-03-02T07:08:54;17.57;;;10.97;;
14326;SDS011;7247;53.330;-1.180;2024-03-02T07:11:20;17.67;;;10.80;;
14326;SDS011;7247;53.330;-1.180;2024-03-02T07:13:46;18.90;;;11.83;;
14326;SDS011;7247;53.330;-1.180;2024-03-02T07:16:13;17.47;;;10.43;;
14326;SDS011;7247;53.330;-1.180;2024-03-02T07:18:53;15.77;;;10.60;;
14326;SDS011;7247;53.330;-1.180;2024-03-02T07:21:21;19.27;;;10.70;;
14326;SDS011;7247;53.330;-1.180;2024-03-02T07:23:48;17.53;;;10.33;;
14326;SDS011;7247;53.330;-1.180;2024-03-02T07:26:16;17.10;;;10.77;;
14326;SDS011;7247;53.330;-1.180;2024-03-02T07:28:44;17.70;;;10.73;;
14326;SDS011;7247;53.330;-1.180;2024-03-02T07:31:10;14.93;;;10.70;;
14326;SDS011;7247;53.330;-1.180;2024-03-02T07:33:37;16.70;;;10.63;;
14326;SDS011;7247;53.330;-1.180;2024-03-02T07:36:03;13.77;;;9.80;;
14326;SDS011;7247;53.330;-1.180;2024-03-02T07:38:30;21.40;;;10.23;;
14326;SDS011;7247;53.330;-1.180;2024-03-02T07:40:58;13.30;;;9.13;;
14326;SDS011;7247;53.330;-1.180;2024-03-02T07:43:26;12.83;;;9.47;;
14326;SDS011;7247;53.330;-1.180;2024-03-02T07:45:53;14.13;;;9.63;;
14326;SDS011;7247;53.330;-1.180;2024-03-02T07:48:20;15.00;;;9.10;;
14326;SDS011;7247;53.330;-1.180;2024-03-02T07:50:47;16.00;;;9.50;;
14326;SDS011;7247;53.330;-1.180;2024-03-02T07:53:13;14.83;;;9.00;;
14326;SDS011;7247;53.330;-1.180;2024-03-02T07:55:40;11.77;;;8.97;;
14326;SDS011;7247;53.330;-1.180;2024-03-02T07:58:07;12.93;;;8.93;;
14326;SDS011;7247;53.330;-1.180;2024-03-02T08:00:34;12.13;;;7.80;;
14326;SDS011;7247;53.330;-1.180;2024-03-02T08:03:01;11.90;;;7.93;;
14326;SDS011;7247;53.330;-1.180;2024-03-02T08:05:28;12.50;;;7.37;;
14326;SDS011;7247;53.330;-1.180;2024-03-02T08:07:55;13.40;;;8.00;;
14326;SDS011;7247;53.330;-1.180;2024-03-02T08:10:21;11.03;;;7.80;;
14326;SDS011;7247;53.330;-1.180;2024-03-02T08:12:48;11.90;;;8.60;;
14326;SDS011;7247;53.330;-1.180;2024-03-02T08:15:14;12.67;;;8.13;;
14326;SDS011;7247;53.330;-1.180;2024-03-02T08:17:42;12.30;;;7.43;;
14326;SDS011;7247;53.330;-1.180;2024-03-02T08:20:13;12.60;;;7.77;;
14326;SDS011;7247;53.330;-1.180;2024-03-02T08:22:39;10.70;;;7.33;;
14326;SDS011;7247;53.330;-1.180;2024-03-02T08:25:06;20.27;;;8.93;;
14326;SDS011;7247;53.330;-1.180;2024-03-02T08:27:34;12.57;;;7.73;;
14326;SDS011;7247;53.330;-1.180;2024-03-02T08:30:01;10.07;;;6.77;;
14326;SDS011;7247;53.330;-1.180;2024-03-02T08:32:31;10.80;;;6.80;;
14326;SDS011;7247;53.330;-1.180;2024-03-02T08:34:59;9.53;;;6.87;;
14326;SDS011;7247;53.330;-1.180;2024-03-02T08:37:25;10.20;;;7.00;;
14326;SDS011;7247;53.330;-1.180;2024-03-02T08:39:52;9.23;;;7.07;;
14326;SDS011;7247;53.330;-1.180;2024-03-02T08:42:18;11.10;;;6.70;;
14326;SDS011;7247;53.330;-1.180;2024-03-02T08:44:45;12.27;;;6.20;;
14326;SDS011;7247;53.330;-1.180;2024-03-02T08:47:11;9.67;;;5.43;;
14326;SDS011;7247;53.330;-1.180;2024-03-02T08:49:38;12.00;;;5.80;;
14326;SDS011;7247;53.330;-1.180;2024-03-02T08:52:06;9.60;;;5.50;;
14326;SDS011;7247;53.330;-1.180;2024-03-02T08:54:33;9.00;;;5.20;;
14326;SDS011;7247;53.330;-1.180;2024-03-02T08:57:00;9.63;;;5.67;;
14326;SDS011;7247;53.330;-1.180;2024-03-02T08:59:27;13.83;;;5.40;;
14326;SDS011;7247;53.330;-1.180;2024-03-02T09:01:53;12.13;;;5.30;;
14326;SDS011;7247;53.330;-1.180;2024-03-02T09:04:20;10.97;;;5.00;;
14326;SDS011;7247;53.330;-1.180;2024-03-02T09:06:46;12.53;;;4.60;;
14326;SDS011;7247;53.330;-1.180;2024-03-02T09:09:14;9.40;;;3.97;;
14326;SDS011;7247;53.330;-1.180;2024-03-02T09:11:41;9.73;;;3.70;;
14326;SDS011;7247;53.330;-1.180;2024-03-02T09:14:07;10.67;;;4.17;;
14326;SDS011;7247;53.330;-1.180;2024-03-02T09:16:34;10.10;;;4.33;;
14326;SDS011;7247;53.330;-1.180;2024-03-02T09:19:00;10.37;;;4.23;;
14326;SDS011;7247;53.330;-1.180;2024-03-02T09:21:27;10.60;;;4.10;;
14326;SDS011;7247;53.330;-1.180;2024-03-02T09:23:55;12.53;;;3.57;;
14326;SDS011;7247;53.330;-1.180;2024-03-02T09:26:23;11.47;;;4.10;;
14326;SDS011;7247;53.330;-1.180;2024-03-02T09:28:49;8.27;;;4.30;;
14326;SDS011;7247;53.330;-1.180;2024-03-02T09:31:16;9.17;;;3.50;;
14326;SDS011;7247;53.330;-1.180;2024-03-02T09:33:42;9.80;;;3.13;;
14326;SDS011;7247;53.330;-1.180;2024-03-02T09:36:16;8.47;;;2.83;;
14326;SDS011;7247;53.330;-1.180;2024-03-02T09:38:42;7.83;;;3.03;;
14326;SDS011;7247;53.330;-1.180;2024-03-02T09:41:09;8.03;;;2.90;;
14326;SDS011;7247;53.330;-1.180;2024-03-02T09:43:37;9.43;;;3.10;;
14326;SDS011;7247;53.330;-1.180;2024-03-02T09:46:04;8.53;;;2.73;;
14326;SDS011;7247;53.330;-1.180;2024-03-02T09:48:31;10.83;;;3.20;;
14326;SDS011;7247;53.330;-1.180;2024-03-02T09:50:58;11.37;;;2.90;;
14326;SDS011;7247;53.330;-1.180;2024-03-02T09:53:25;7.63;;;2.73;;
14326;SDS011;7247;53.330;-1.180;2024-03-02T09:55:52;9.27;;;3.37;;
14326;SDS011;7247;53.330;-1.180;2024-03-02T09:58:19;10.23;;;2.80;;
14326;SDS011;7247;53.330;-1.180;2024-03-02T10:00:46;7.67;;;2.80;;
14326;SDS011;7247;53.330;-1.180;2024-03-02T10:03:14;10.67;;;3.20;;
14326;SDS011;7247;53.330;-1.180;2024-03-02T10:05:41;9.40;;;2.93;;
14326;SDS011;7247;53.330;-1.180;2024-03-02T10:08:08;10.57;;;2.97;;
14326;SDS011;7247;53.330;-1.180;2024-03-02T10:10:35;13.00;;;3.10;;
14326;SDS011;7247;53.330;-1.180;2024-03-02T10:13:05;15.97;;;3.03;;
14326;SDS011;7247;53.330;-1.180;2024-03-02T10:15:31;12.00;;;3.10;;
14326;SDS011;7247;53.330;-1.180;2024-03-02T10:17:59;13.93;;;3.20;;
14326;SDS011;7247;53.330;-1.180;2024-03-02T10:20:26;10.57;;;2.87;;
14326;SDS011;7247;53.330;-1.180;2024-03-02T10:22:54;11.20;;;3.33;;
14326;SDS011;7247;53.330;-1.180;2024-03-02T10:25:30;7.90;;;3.13;;
14326;SDS011;7247;53.330;-1.180;2024-03-02T10:27:57;15.57;;;3.90;;
14326;SDS011;7247;53.330;-1.180;2024-03-02T10:30:24;11.67;;;3.17;;
14326;SDS011;7247;53.330;-1.180;2024-03-02T10:32:50;9.77;;;3.17;;
14326;SDS011;7247;53.330;-1.180;2024-03-02T10:35:18;12.33;;;3.63;;
14326;SDS011;7247;53.330;-1.180;2024-03-02T10:37:46;13.07;;;3.30;;
14326;SDS011;7247;53.330;-1.180;2024-03-02T10:40:13;12.97;;;3.03;;
14326;SDS011;7247;53.330;-1.180;2024-03-02T10:42:40;14.27;;;3.30;;
14326;SDS011;7247;53.330;-1.180;2024-03-02T10:45:07;9.83;;;3.03;;
14326;SDS011;7247;53.330;-1.180;2024-03-02T10:47:35;13.97;;;3.33;;
14326;SDS011;7247;53.330;-1.180;2024-03-02T10:50:02;15.53;;;3.97;;
14326;SDS011;7247;53.330;-1.180;2024-03-02T10:52:34;11.30;;;3.00;;
14326;SDS011;7247;53.330;-1.180;2024-03-02T10:55:01;13.30;;;3.40;;
14326;SDS011;7247;53.330;-1.180;2024-03-02T10:57:32;18.03;;;3.90;;
14326;SDS011;7247;53.330;-1.180;2024-03-02T11:00:01;13.57;;;3.50;;
14326;SDS011;7247;53.330;-1.180;2024-03-02T11:02:28;10.97;;;4.10;;
14326;SDS011;7247;53.330;-1.180;2024-03-02T11:04:56;16.17;;;4.13;;
14326;SDS011;7247;53.330;-1.180;2024-03-02T11:07:22;17.93;;;4.03;;
14326;SDS011;7247;53.330;-1.180;2024-03-02T11:09:52;11.87;;;3.50;;
14326;SDS011;7247;53.330;-1.180;2024-03-02T11:12:22;15.97;;;3.70;;
14326;SDS011;7247;53.330;-1.180;2024-03-02T11:14:49;21.93;;;5.23;;
14326;SDS011;7247;53.330;-1.180;2024-03-02T11:17:17;15.00;;;4.80;;
14326;SDS011;7247;53.330;-1.180;2024-03-02T11:19:44;11.07;;;4.80;;
14326;SDS011;7247;53.330;-1.180;2024-03-02T11:22:11;18.77;;;3.80;;
14326;SDS011;7247;53.330;-1.180;2024-03-02T11:24:38;17.23;;;4.67;;
14326;SDS011;7247;53.330;-1.180;2024-03-02T11:27:06;12.50;;;3.80;;
14326;SDS011;7247;53.330;-1.180;2024-03-02T11:32:20;16.23;;;4.23;;
14326;SDS011;7247;53.330;-1.180;2024-03-02T11:34:49;12.10;;;5.27;;
14326;SDS011;7247;53.330;-1.180;2024-03-02T11:37:15;18.67;;;5.50;;
14326;SDS011;7247;53.330;-1.180;2024-03-02T11:39:43;12.40;;;3.77;;
14326;SDS011;7247;53.330;-1.180;2024-03-02T11:42:12;12.63;;;3.93;;
14326;SDS011;7247;53.330;-1.180;2024-03-02T11:44:41;11.67;;;3.50;;
14326;SDS011;7247;53.330;-1.180;2024-03-02T11:47:08;15.90;;;4.40;;
14326;SDS011;7247;53.330;-1.180;2024-03-02T11:49:37;26.90;;;5.03;;
14326;SDS011;7247;53.330;-1.180;2024-03-02T11:52:05;10.23;;;3.07;;
14326;SDS011;7247;53.330;-1.180;2024-03-02T11:54:32;12.60;;;3.77;;
14326;SDS011;7247;53.330;-1.180;2024-03-02T11:56:59;14.40;;;4.33;;
14326;SDS011;7247;53.330;-1.180;2024-03-02T11:59:29;13.30;;;3.33;;
14326;SDS011;7247;53.330;-1.180;2024-03-02T12:01:56;12.07;;;4.07;;
14326;SDS011;7247;53.330;-1.180;2024-03-02T12:04:23;9.70;;;2.67;;
14326;SDS011;7247;53.330;-1.180;2024-03-02T12:06:53;10.20;;;2.63;;
14326;SDS011;7247;53.330;-1.180;2024-03-02T12:09:20;9.00;;;2.20;;
14326;SDS011;7247;53.330;-1.180;2024-03-02T12:11:46;9.60;;;2.80;;
14326;SDS011;7247;53.330;-1.180;2024-03-02T12:14:13;11.40;;;3.10;;
14326;SDS011;7247;53.330;-1.180;2024-03-02T12:16:44;8.50;;;2.23;;
14326;SDS011;7247;53.330;-1.180;2024-03-02T12:19:11;12.20;;;3.30;;
14326;SDS011;7247;53.330;-1.180;2024-03-02T12:21:37;7.73;;;2.50;;
14326;SDS011;7247;53.330;-1.180;2024-03-02T12:24:04;13.77;;;3.47;;
14326;SDS011;7247;53.330;-1.180;2024-03-02T12:26:30;8.87;;;3.23;;
14326;SDS011;7247;53.330;-1.180;2024-03-02T12:28:57;6.67;;;2.47;;
14326;SDS011;7247;53.330;-1.180;2024-03-02T12:31:24;8.00;;;2.70;;
14326;SDS011;7247;53.330;-1.180;2024-03-02T12:33:52;8.00;;;2.63;;
14326;SDS011;7247;53.330;-1.180;2024-03-02T12:36:18;6.10;;;2.63;;
14326;SDS011;7247;53.330;-1.180;2024-03-02T12:38:45;12.30;;;2.80;;
14326;SDS011;7247;53.330;-1.180;2024-03-02T12:41:14;6.90;;;2.20;;
14326;SDS011;7247;53.330;-1.180;2024-03-02T12:43:40;4.50;;;1.80;;
14326;SDS011;7247;53.330;-1.180;2024-03-02T12:46:07;5.03;;;1.63;;
14326;SDS011;7247;53.330;-1.180;2024-03-02T12:48:34;6.53;;;1.70;;
14326;SDS011;7247;53.330;-1.180;2024-03-02T12:51:02;6.27;;;2.10;;
14326;SDS011;7247;53.330;-1.180;2024-03-02T12:53:29;6.57;;;2.00;;
14326;SDS011;7247;53.330;-1.180;2024-03-02T12:55:56;4.63;;;1.97;;
14326;SDS011;7247;53.330;-1.180;2024-03-02T12:58:23;7.40;;;2.20;;
14326;SDS011;7247;53.330;-1.180;2024-03-02T13:00:49;7.07;;;2.23;;
14326;SDS011;7247;53.330;-1.180;2024-03-02T13:03:17;5.60;;;2.03;;
14326;SDS011;7247;53.330;-1.180;2024-03-02T13:05:48;4.47;;;1.80;;
14326;SDS011;7247;53.330;-1.180;2024-03-02T13:08:16;5.13;;;1.50;;
14326;SDS011;7247;53.330;-1.180;2024-03-02T13:10:42;6.37;;;1.50;;
14326;SDS011;7247;53.330;-1.180;2024-03-02T13:13:09;3.53;;;1.40;;
14326;SDS011;7247;53.330;-1.180;2024-03-02T13:15:35;2.93;;;1.20;;
14326;SDS011;7247;53.330;-1.180;2024-03-02T13:18:02;2.13;;;0.90;;
14326;SDS011;7247;53.330;-1.180;2024-03-02T13:20:29;1.47;;;0.80;;
14326;SDS011;7247;53.330;-1.180;2024-03-02T13:22:56;1.03;;;0.77;;
14326;SDS011;7247;53.330;-1.180;2024-03-02T13:25:24;1.20;;;1.10;;
14326;SDS011;7247;53.330;-1.180;2024-03-02T13:27:51;1.50;;;1.40;;
14326;SDS011;7247;53.330;-1.180;2024-03-02T13:30:18;0.70;;;0.60;;
14326;SDS011;7247;53.330;-1.180;2024-03-02T13:32:44;1.00;;;0.80;;
14326;SDS011;7247;53.330;-1.180;2024-03-02T13:35:11;0.77;;;0.77;;
14326;SDS011;7247;53.330;-1.180;2024-03-02T13:37:37;0.60;;;0.50;;
14326;SDS011;7247;53.330;-1.180;2024-03-02T13:40:04;1.90;;;0.80;;
14326;SDS011;7247;53.330;-1.180;2024-03-02T13:42:32;0.70;;;0.70;;
14326;SDS011;7247;53.330;-1.180;2024-03-02T13:44:58;0.80;;;0.60;;
14326;SDS011;7247;53.330;-1.180;2024-03-02T13:47:25;4.13;;;3.83;;
14326;SDS011;7247;53.330;-1.180;2024-03-02T13:49:52;0.60;;;0.60;;
14326;SDS011;7247;53.330;-1.180;2024-03-02T13:52:19;1.20;;;0.80;;
14326;SDS011;7247;53.330;-1.180;2024-03-02T13:54:46;1.50;;;0.90;;
14326;SDS011;7247;53.330;-1.180;2024-03-02T13:57:13;2.50;;;1.60;;
14326;SDS011;7247;53.330;-1.180;2024-03-02T13:59:41;2.77;;;1.60;;
14326;SDS011;7247;53.330;-1.180;2024-03-02T14:02:08;1.67;;;1.20;;
14326;SDS011;7247;53.330;-1.180;2024-03-02T14:04:35;1.30;;;1.20;;
14326;SDS011;7247;53.330;-1.180;2024-03-02T14:07:01;1.93;;;1.23;;
14326;SDS011;7247;53.330;-1.180;2024-03-02T14:09:28;1.20;;;1.10;;
14326;SDS011;7247;53.330;-1.180;2024-03-02T14:11:55;1.10;;;1.10;;
14326;SDS011;7247;53.330;-1.180;2024-03-02T14:14:21;1.00;;;1.00;;
14326;SDS011;7247;53.330;-1.180;2024-03-02T14:16:50;1.10;;;1.00;;
14326;SDS011;7247;53.330;-1.180;2024-03-02T14:19:17;2.00;;;0.90;;
14326;SDS011;7247;53.330;-1.180;2024-03-02T14:21:43;0.73;;;0.73;;
14326;SDS011;7247;53.330;-1.180;2024-03-02T14:24:10;0.90;;;0.90;;
14326;SDS011;7247;53.330;-1.180;2024-03-02T14:26:37;1.93;;;1.17;;
14326;SDS011;7247;53.330;-1.180;2024-03-02T14:29:03;1.00;;;0.90;;
14326;SDS011;7247;53.330;-1.180;2024-03-02T14:31:30;1.17;;;1.00;;
14326;SDS011;7247;53.330;-1.180;2024-03-02T14:33:58;1.00;;;0.90;;
14326;SDS011;7247;53.330;-1.180;2024-03-02T14:36:25;2.37;;;1.40;;
14326;SDS011;7247;53.330;-1.180;2024-03-02T14:38:52;2.00;;;1.00;;
14326;SDS011;7247;53.330;-1.180;2024-03-02T14:41:19;2.23;;;0.90;;
14326;SDS011;7247;53.330;-1.180;2024-03-02T14:43:46;1.20;;;1.10;;